Time;durP1;ratioP1;P1;durP2;ratioP2;P2;SDS_P1;SDS_P2;PMS_P1;PMS_P2;Temp;Humidity;BMP_temperature;BMP_pressure;BME280_temperature;BME280_humidity;BME280_pressure;Samples;Min_cycle;Max_cycle;Signal;HPM_P1;HPM_P2
2021/10/22 00:02:25;;;;;;;3.95;1.00;;;26.70;76.40;;;;;;5030392;28;20025;-76
2021/10/22 00:04:52;;;;;;;2.00;1.05;;;26.30;74.70;;;;;;5032131;28;20022;-67
2021/10/22 00:07:19;;;;;;;2.15;1.00;;;26.00;75.30;;;;;;5031009;28;20096;-73
2021/10/22 00:09:47;;;;;;;2.13;0.80;;;25.70;77.90;;;;;;5030465;28;20022;-73
2021/10/22 00:12:14;;;;;;;2.35;0.95;;;25.40;77.30;;;;;;5032173;28;20040;-77
2021/10/22 00:14:41;;;;;;;2.38;1.00;;;25.10;79.00;;;;;;5034815;28;20028;-79
2021/10/22 00:17:09;;;;;;;2.38;1.08;;;25.10;80.20;;;;;;5038932;28;20079;-78
2021/10/22 00:19:37;;;;;;;4.43;1.58;;;25.70;78.20;;;;;;5040061;28;20025;-77
2021/10/22 00:22:04;;;;;;;4.18;1.25;;;26.30;76.80;;;;;;5031576;28;20033;-74
2021/10/22 00:24:31;;;;;;;6.63;1.58;;;26.70;74.00;;;;;;5033202;28;20051;-70
2021/10/22 00:26:58;;;;;;;3.65;1.50;;;26.90;71.90;;;;;;5031576;28;20029;-74
2021/10/22 00:29:25;;;;;;;5.03;1.00;;;26.70;71.50;;;;;;5031787;28;20572;-70
2021/10/22 00:31:52;;;;;;;8.23;1.27;;;26.30;73.20;;;;;;5030596;28;20495;-76
2021/10/22 00:34:19;;;;;;;4.97;1.23;;;25.70;74.60;;;;;;5029694;28;20100;-76
2021/10/22 00:36:46;;;;;;;4.00;3.22;;;25.40;75.50;;;;;;5029674;28;20499;-71
2021/10/22 00:39:13;;;;;;;3.83;2.33;;;25.00;77.60;;;;;;5028163;28;20021;-72
2021/10/22 00:41:42;;;;;;;5.47;3.58;;;25.00;76.80;;;;;;5030481;28;20025;-74
2021/10/22 00:44:10;;;;;;;3.05;1.30;;;25.10;76.30;;;;;;5030022;28;20029;-70
2021/10/22 00:46:39;;;;;;;4.50;1.20;;;25.20;75.50;;;;;;5029982;28;20087;-76
2021/10/22 00:49:10;;;;;;;5.40;1.20;;;25.20;74.70;;;;;;5028121;28;20025;-73
2021/10/22 00:51:38;;;;;;;9.13;4.18;;;25.30;73.00;;;;;;5029836;28;20100;-76
2021/10/22 00:54:08;;;;;;;4.03;2.20;;;25.70;77.30;;;;;;5086136;23;20503;-77
2021/10/22 00:56:35;;;;;;;4.50;1.45;;;26.20;72.30;;;;;;5061258;28;20017;-72
2021/10/22 00:59:04;;;;;;;3.47;1.35;;;26.50;72.40;;;;;;5061321;28;20055;-73
2021/10/22 01:01:31;;;;;;;5.95;1.55;;;26.10;71.30;;;;;;5062374;28;20024;-74
2021/10/22 01:03:58;;;;;;;2.30;1.05;;;25.80;72.60;;;;;;5055092;28;20483;-72
2021/10/22 01:06:25;;;;;;;9.10;4.28;;;26.10;69.90;;;;;;5063709;28;20017;-71
2021/10/22 01:08:52;;;;;;;3.30;1.60;;;26.20;69.70;;;;;;5060148;28;20017;-75
2021/10/22 01:11:20;;;;;;;4.43;1.75;;;26.10;72.20;;;;;;5055133;28;20620;-69
2021/10/22 01:13:47;;;;;;;3.25;1.77;;;26.00;71.50;;;;;;5058360;28;20499;-69
2021/10/22 01:16:14;;;;;;;4.45;2.10;;;25.90;70.70;;;;;;5059951;28;20025;-73
2021/10/22 01:18:41;;;;;;;4.10;1.70;;;26.00;72.00;;;;;;5060741;28;20696;-72
2021/10/22 01:21:08;;;;;;;3.78;1.65;;;26.70;71.60;;;;;;5054693;28;20218;-75
2021/10/22 01:23:35;;;;;;;1.77;1.10;;;27.30;69.10;;;;;;5057395;28;20024;-76
2021/10/22 01:26:05;;;;;;;5.15;1.40;;;27.60;66.00;;;;;;5059997;28;20414;-70
2021/10/22 01:28:32;;;;;;;1.52;1.10;;;27.90;65.90;;;;;;5059164;28;20021;-73
2021/10/22 01:30:59;;;;;;;2.85;1.30;;;27.90;63.80;;;;;;5057819;28;20017;-72
2021/10/22 01:33:27;;;;;;;2.28;1.05;;;27.40;62.30;;;;;;5055288;28;20468;-69
2021/10/22 01:35:54;;;;;;;2.72;1.15;;;27.00;65.10;;;;;;5059298;28;20157;-73
2021/10/22 01:38:25;;;;;;;2.60;1.15;;;27.10;64.90;;;;;;5058435;28;20029;-72
2021/10/22 01:40:56;;;;;;;2.75;1.00;;;27.00;65.00;;;;;;5052298;28;20025;-71
2021/10/22 01:43:24;;;;;;;4.40;1.70;;;27.30;62.10;;;;;;5054108;28;20020;-75
2021/10/22 01:45:51;;;;;;;2.22;1.00;;;27.60;64.60;;;;;;5056374;28;20772;-73
2021/10/22 01:48:19;;;;;;;1.92;1.15;;;28.20;64.70;;;;;;5058227;28;20103;-75
2021/10/22 01:50:47;;;;;;;2.25;1.20;;;28.60;62.40;;;;;;5059035;28;20471;-73
2021/10/22 01:53:17;;;;;;;1.48;0.90;;;28.70;60.90;;;;;;5059711;28;20407;-74
2021/10/22 01:55:44;;;;;;;2.45;0.88;;;29.10;60.30;;;;;;5056813;28;20266;-74
2021/10/22 01:58:11;;;;;;;3.13;1.08;;;28.80;59.00;;;;;;5056366;28;20044;-68
2021/10/22 02:00:39;;;;;;;1.70;1.10;;;28.50;60.10;;;;;;5057715;28;20056;-69
2021/10/22 02:03:06;;;;;;;3.38;1.17;;;28.10;60.40;;;;;;5060019;28;20021;-69
2021/10/22 02:05:34;;;;;;;3.03;1.13;;;27.70;61.00;;;;;;5054984;28;20056;-71
2021/10/22 02:08:01;;;;;;;3.30;1.00;;;27.90;60.00;;;;;;5063240;28;20479;-72
2021/10/22 02:10:28;;;;;;;1.40;0.80;;;28.30;60.10;;;;;;5059433;28;20459;-68
2021/10/22 02:12:55;;;;;;;2.45;0.95;;;28.80;56.10;;;;;;5061108;28;20025;-75
2021/10/22 02:15:22;;;;;;;3.45;1.20;;;28.50;56.10;;;;;;5064747;28;20024;-70
2021/10/22 02:17:49;;;;;;;3.60;1.40;;;27.80;58.10;;;;;;5055990;28;20026;-73
2021/10/22 02:20:16;;;;;;;1.80;1.00;;;27.90;59.20;;;;;;5061441;28;20479;-72
2021/10/22 02:22:43;;;;;;;2.33;1.05;;;28.20;61.20;;;;;;5062865;28;20016;-70
2021/10/22 02:25:10;;;;;;;1.48;0.90;;;27.80;59.50;;;;;;5062496;28;20546;-73
2021/10/22 02:27:37;;;;;;;1.65;0.82;;;28.10;60.10;;;;;;5061426;28;20027;-69
2021/10/22 02:30:06;;;;;;;3.22;1.00;;;28.10;56.50;;;;;;5060287;28;20062;-69
2021/10/22 02:32:33;;;;;;;1.90;1.10;;;27.60;57.80;;;;;;5061310;28;20032;-75
2021/10/22 02:35:00;;;;;;;2.47;0.90;;;27.30;57.80;;;;;;5061014;28;20127;-73
2021/10/22 02:37:27;;;;;;;3.55;0.90;;;27.10;56.60;;;;;;5062942;28;20501;-72
2021/10/22 02:39:53;;;;;;;2.92;1.25;;;27.70;58.50;;;;;;5059217;28;20031;-74
2021/10/22 02:42:20;;;;;;;1.50;0.80;;;28.60;56.00;;;;;;5061352;28;20029;-70
2021/10/22 02:44:47;;;;;;;1.33;0.90;;;29.30;56.30;;;;;;5061659;28;20016;-72
2021/10/22 02:47:14;;;;;;;3.33;0.98;;;29.30;54.40;;;;;;5059058;28;20029;-72
2021/10/22 02:49:41;;;;;;;4.00;1.02;;;29.10;53.40;;;;;;5062725;28;20017;-74
2021/10/22 02:52:08;;;;;;;3.00;1.02;;;28.80;55.20;;;;;;5059482;28;20023;-69
2021/10/22 02:54:35;;;;;;;1.45;1.00;;;29.30;53.30;;;;;;5059091;28;20047;-72
2021/10/22 02:57:02;;;;;;;3.28;1.30;;;29.00;53.30;;;;;;5060530;28;20461;-73
2021/10/22 02:59:29;;;;;;;2.42;0.90;;;28.80;53.50;;;;;;5061162;28;20546;-74
2021/10/22 03:01:56;;;;;;;2.53;1.17;;;28.70;52.10;;;;;;5063154;28;20031;-73
2021/10/22 03:04:23;;;;;;;2.65;1.10;;;28.90;53.80;;;;;;5059174;28;20040;-74
2021/10/22 03:06:50;;;;;;;1.75;1.20;;;29.30;54.30;;;;;;5063654;28;20021;-72
2021/10/22 03:09:17;;;;;;;1.70;1.13;;;29.90;52.90;;;;;;5065386;28;20484;-72
2021/10/22 03:11:44;;;;;;;4.15;1.35;;;29.40;52.50;;;;;;5064386;28;20016;-72
2021/10/22 03:14:11;;;;;;;2.38;1.42;;;29.60;51.30;;;;;;5065658;28;20031;-75
2021/10/22 03:16:38;;;;;;;2.08;1.42;;;30.00;52.90;;;;;;5080640;28;20028;-74
2021/10/22 03:19:05;;;;;;;2.55;1.90;;;30.40;53.50;;;;;;5064592;28;20035;-73
2021/10/22 03:21:32;;;;;;;2.58;1.60;;;31.00;50.40;;;;;;5061238;28;20138;-74
2021/10/22 03:23:59;;;;;;;2.88;1.42;;;31.00;49.00;;;;;;5058935;28;20070;-75
2021/10/22 03:26:26;;;;;;;3.55;1.63;;;30.90;50.70;;;;;;5065120;28;20146;-73
2021/10/22 03:28:53;;;;;;;2.92;1.50;;;31.10;48.60;;;;;;5065264;28;20139;-69
2021/10/22 03:31:20;;;;;;;1.95;1.42;;;31.30;48.50;;;;;;5064765;28;20048;-70
2021/10/22 03:33:47;;;;;;;2.00;1.63;;;31.20;48.80;;;;;;5064527;28;20037;-71
2021/10/22 03:36:14;;;;;;;1.52;1.40;;;31.60;48.70;;;;;;5066484;28;20024;-74
2021/10/22 03:38:42;;;;;;;3.30;1.75;;;31.30;48.30;;;;;;5064009;28;20017;-70
2021/10/22 03:41:09;;;;;;;6.95;5.32;;;30.90;48.90;;;;;;5063020;28;20143;-73
2021/10/22 03:43:36;;;;;;;4.90;2.30;;;31.20;49.50;;;;;;5057086;28;20040;-71
2021/10/22 03:46:06;;;;;;;4.10;1.90;;;31.30;46.90;;;;;;5065856;28;20020;-66
2021/10/22 03:48:32;;;;;;;4.07;1.88;;;31.30;49.10;;;;;;5055447;28;20469;-68
2021/10/22 03:50:59;;;;;;;2.67;1.40;;;31.20;50.60;;;;;;5062815;28;20020;-66
2021/10/22 03:53:27;;;;;;;3.45;1.70;;;31.10;51.80;;;;;;4701519;28;10000255;-69
2021/10/22 03:55:54;;;;;;;3.80;1.75;;;31.00;52.40;;;;;;5055550;28;20123;-66
2021/10/22 03:58:20;;;;;;;4.55;1.38;;;30.50;52.90;;;;;;5050362;28;20147;-71
2021/10/22 04:00:48;;;;;;;4.30;1.88;;;29.10;54.50;;;;;;5050787;28;20032;-73
2021/10/22 04:03:15;;;;;;;3.08;1.48;;;28.10;57.90;;;;;;5054196;28;20112;-72
2021/10/22 04:05:44;;;;;;;2.85;1.50;;;27.90;58.70;;;;;;5060059;28;20387;-72
2021/10/22 04:08:11;;;;;;;3.97;1.33;;;28.70;56.00;;;;;;5056659;28;20067;-77
2021/10/22 04:10:41;;;;;;;2.58;1.40;;;29.40;54.90;;;;;;5052563;28;20912;-73
2021/10/22 04:13:10;;;;;;;2.03;1.42;;;30.00;54.90;;;;;;5055092;28;20037;-73
2021/10/22 04:15:40;;;;;;;4.63;1.42;;;30.30;55.50;;;;;;5054312;28;20119;-68
2021/10/22 04:18:07;;;;;;;1.50;1.23;;;30.40;51.50;;;;;;5061109;28;20029;-76
2021/10/22 04:20:35;;;;;;;4.47;1.23;;;30.00;52.50;;;;;;5062822;28;20029;-65
2021/10/22 04:23:02;;;;;;;3.65;1.42;;;29.40;55.10;;;;;;5059692;28;20448;-68
2021/10/22 04:25:29;;;;;;;5.47;1.42;;;29.80;56.90;;;;;;5049405;28;20031;-67
2021/10/22 04:27:57;;;;;;;4.32;1.40;;;30.20;56.80;;;;;;5056352;28;20553;-68
2021/10/22 04:30:24;;;;;;;3.80;1.45;;;29.90;56.90;;;;;;5055541;28;20306;-66
2021/10/22 04:32:51;;;;;;;2.10;1.25;;;29.70;57.00;;;;;;5057151;28;20485;-68
2021/10/22 04:35:18;;;;;;;4.75;2.03;;;29.70;57.60;;;;;;5056298;28;20090;-67
2021/10/22 04:38:00;;;;;;;4.20;1.65;;;28.80;58.40;;;;;;5056932;28;20738;-75
2021/10/22 04:40:33;;;;;;;5.18;1.70;;;27.70;61.40;;;;;;5056586;28;20437;-67
2021/10/22 04:43:01;;;;;;;4.60;1.60;;;27.20;63.20;;;;;;5055809;28;20094;-70
2021/10/22 04:45:30;;;;;;;2.28;1.50;;;26.50;66.00;;;;;;5058589;28;20524;-72
2021/10/22 04:47:58;;;;;;;6.03;1.73;;;26.70;66.90;;;;;;5060338;28;20028;-73
2021/10/22 04:50:25;;;;;;;3.13;1.60;;;27.20;66.00;;;;;;5056433;28;20031;-72
2021/10/22 04:52:55;;;;;;;3.20;1.98;;;27.10;66.20;;;;;;5056586;28;20041;-72
2021/10/22 04:55:24;;;;;;;5.28;2.25;;;26.90;68.30;;;;;;5055379;28;20025;-73
2021/10/22 04:57:51;;;;;;;3.45;1.80;;;27.30;67.30;;;;;;5058332;28;20021;-71
2021/10/22 05:00:19;;;;;;;3.95;1.77;;;27.20;67.40;;;;;;5055872;28;20025;-72
2021/10/22 05:02:47;;;;;;;3.47;1.70;;;27.20;66.00;;;;;;5058431;28;20115;-66
2021/10/22 05:05:15;;;;;;;6.05;1.75;;;26.90;66.90;;;;;;5057012;28;20086;-69
2021/10/22 05:07:43;;;;;;;4.70;1.83;;;27.10;68.20;;;;;;5059846;28;20021;-67
2021/10/22 05:10:10;;;;;;;3.05;1.42;;;27.50;67.20;;;;;;5058781;28;20032;-70
2021/10/22 05:12:38;;;;;;;4.90;1.83;;;27.70;66.20;;;;;;5061177;28;20078;-68
2021/10/22 05:15:07;;;;;;;5.13;1.40;;;27.80;67.50;;;;;;5063538;28;20060;-72
2021/10/22 05:17:35;;;;;;;3.47;1.30;;;28.10;67.00;;;;;;5059828;28;20127;-69
2021/10/22 05:20:07;;;;;;;4.53;1.23;;;28.00;64.20;;;;;;5060470;28;20107;-73
2021/10/22 05:22:35;;;;;;;;;;;27.80;64.90;;;;;;5062337;28;20028;-75
2021/10/22 05:25:04;;;;;;;2.10;1.10;;;27.60;67.90;;;;;;5059410;28;19947;-72
2021/10/22 05:27:31;;;;;;;3.60;1.40;;;27.40;67.50;;;;;;5058462;28;20395;-69
2021/10/22 05:29:58;;;;;;;2.95;1.42;;;27.70;69.10;;;;;;5058653;28;20079;-67
2021/10/22 05:32:25;;;;;;;3.45;1.45;;;27.80;66.50;;;;;;5058715;28;20024;-67
2021/10/22 05:34:52;;;;;;;3.08;1.30;;;28.30;67.20;;;;;;5054296;28;20031;-67
2021/10/22 05:37:20;;;;;;;3.30;1.20;;;28.40;67.80;;;;;;5060810;28;20029;-67
2021/10/22 05:39:47;;;;;;;3.65;1.88;;;28.70;65.60;;;;;;5059226;28;20028;-68
2021/10/22 05:42:15;;;;;;;4.13;1.38;;;29.10;64.40;;;;;;5058407;28;20059;-68
2021/10/22 05:44:41;;;;;;;2.63;1.33;;;28.40;64.90;;;;;;5059544;28;20025;-72
2021/10/22 05:47:08;;;;;;;3.10;1.50;;;28.30;66.00;;;;;;5058794;28;20028;-72
2021/10/22 05:49:36;;;;;;;4.75;1.75;;;28.10;65.10;;;;;;5059972;28;20033;-73
2021/10/22 05:52:03;;;;;;;4.60;1.70;;;27.90;65.80;;;;;;5058944;28;20032;-65
2021/10/22 05:54:30;;;;;;;4.68;1.65;;;28.10;66.40;;;;;;5058666;28;20084;-68
2021/10/22 05:56:57;;;;;;;3.00;1.30;;;28.00;65.80;;;;;;5059867;28;20028;-68
2021/10/22 05:59:24;;;;;;;3.00;1.40;;;27.60;68.10;;;;;;5061159;28;20025;-68
2021/10/22 06:01:51;;;;;;;4.03;1.95;;;27.50;69.00;;;;;;5058540;28;20032;-68
2021/10/22 06:04:18;;;;;;;5.10;1.73;;;27.60;67.70;;;;;;5057841;28;20130;-67
2021/10/22 06:06:45;;;;;;;6.10;2.00;;;27.50;67.40;;;;;;5058859;28;20056;-70
2021/10/22 06:09:12;;;;;;;7.10;1.83;;;27.30;68.90;;;;;;5057867;28;20551;-69
2021/10/22 06:11:39;;;;;;;4.15;1.38;;;27.30;68.50;;;;;;5059431;28;20027;-74
2021/10/22 06:14:06;;;;;;;3.45;1.63;;;27.40;68.40;;;;;;5059380;28;20052;-69
2021/10/22 06:16:34;;;;;;;3.38;1.30;;;27.30;68.70;;;;;;5058797;28;20065;-68
2021/10/22 06:19:02;;;;;;;2.58;1.17;;;27.50;68.20;;;;;;5057286;28;20033;-65
2021/10/22 06:21:34;;;;;;;5.45;2.15;;;28.00;66.40;;;;;;5060110;28;20414;-68
2021/10/22 06:24:04;;;;;;;4.55;1.35;;;28.30;65.60;;;;;;5057998;28;20082;-67
2021/10/22 06:26:34;;;;;;;3.58;1.23;;;28.10;65.30;;;;;;5060304;28;20021;-69
2021/10/22 06:29:03;;;;;;;3.35;1.42;;;27.50;66.50;;;;;;5055411;28;20443;-68
2021/10/22 06:31:30;;;;;;;4.43;1.65;;;27.60;66.10;;;;;;5058553;28;20078;-66
2021/10/22 06:33:58;;;;;;;4.53;1.67;;;27.30;67.40;;;;;;5052764;28;20033;-70
2021/10/22 06:36:25;;;;;;;5.95;1.50;;;27.50;67.80;;;;;;5056204;28;20028;-68
2021/10/22 06:38:53;;;;;;;4.70;1.95;;;28.00;66.00;;;;;;5059489;28;20526;-68
2021/10/22 06:41:20;;;;;;;4.88;1.45;;;27.50;66.70;;;;;;5049346;28;20017;-71
2021/10/22 06:43:47;;;;;;;4.28;2.40;;;27.60;67.40;;;;;;5051741;28;20029;-71
2021/10/22 06:46:16;;;;;;;3.35;1.77;;;28.00;67.80;;;;;;5049317;28;20559;-66
2021/10/22 06:48:45;;;;;;;8.27;1.70;;;28.30;65.10;;;;;;5055213;28;20025;-72
2021/10/22 06:51:14;;;;;;;5.75;1.80;;;28.20;66.80;;;;;;5059697;28;20483;-71
2021/10/22 06:53:41;;;;;;;4.32;1.48;;;28.20;65.10;;;;;;5058693;28;20049;-72
2021/10/22 06:56:08;;;;;;;5.53;1.65;;;27.60;66.20;;;;;;5058232;28;20140;-70
2021/10/22 06:58:36;;;;;;;4.57;1.85;;;27.30;68.20;;;;;;5061587;28;20506;-70
2021/10/22 07:01:04;;;;;;;3.90;1.60;;;27.30;68.80;;;;;;5050140;28;20481;-65
2021/10/22 07:03:39;;;;;;;5.18;1.75;;;27.40;67.90;;;;;;5054725;28;20028;-71
2021/10/22 07:08:53;;;;;;;4.70;1.75;;;26.90;68.90;;;;;;5053600;28;20111;-69
2021/10/22 07:11:21;;;;;;;4.68;1.75;;;26.70;69.90;;;;;;5055160;28;20468;-72
2021/10/22 07:13:55;;;;;;;4.22;1.20;;;26.70;70.40;;;;;;5058501;28;20379;-67
2021/10/22 07:16:27;;;;;;;2.58;1.40;;;26.80;69.60;;;;;;5057178;28;20032;-71
2021/10/22 07:18:54;;;;;;;3.53;2.10;;;26.20;72.10;;;;;;5056881;28;20399;-72
2021/10/22 07:21:21;;;;;;;4.25;1.83;;;26.10;73.20;;;;;;5058592;28;20359;-69
2021/10/22 07:23:49;;;;;;;5.28;2.00;;;26.20;72.10;;;;;;5052467;28;20043;-68
2021/10/22 07:26:18;;;;;;;4.28;1.45;;;26.10;72.80;;;;;;5063092;28;20039;-69
2021/10/22 07:28:46;;;;;;;5.30;1.23;;;26.00;72.50;;;;;;5058009;28;20155;-66
2021/10/22 07:31:13;;;;;;;7.00;1.80;;;25.60;74.90;;;;;;5061520;28;20036;-66
2021/10/22 07:33:41;;;;;;;7.03;1.45;;;25.10;76.60;;;;;;5060711;28;20152;-69
2021/10/22 07:36:12;;;;;;;7.18;1.65;;;24.50;79.10;;;;;;5062009;28;20028;-66
2021/10/22 07:38:41;;;;;;;3.33;1.40;;;23.90;82.90;;;;;;5060431;28;20028;-68
2021/10/22 07:41:08;;;;;;;4.20;1.40;;;23.60;86.70;;;;;;5061378;28;20032;-67
2021/10/22 07:43:37;;;;;;;3.65;1.58;;;23.40;87.40;;;;;;5063357;28;20687;-67
2021/10/22 07:46:05;;;;;;;6.65;1.90;;;23.20;88.70;;;;;;5059901;28;20024;-70
2021/10/22 07:48:32;;;;;;;4.03;1.33;;;22.90;90.50;;;;;;5060816;28;20032;-68
2021/10/22 07:50:59;;;;;;;4.25;1.50;;;22.80;90.80;;;;;;5061146;28;20025;-68
2021/10/22 07:53:27;;;;;;;4.75;1.58;;;22.60;90.90;;;;;;5060452;28;20044;-65
2021/10/22 07:55:54;;;;;;;3.97;1.17;;;22.40;92.00;;;;;;5062475;28;20094;-68
2021/10/22 07:58:21;;;;;;;4.88;1.30;;;22.20;92.50;;;;;;5062678;28;20032;-69
2021/10/22 08:00:48;;;;;;;8.48;1.75;;;22.00;93.20;;;;;;5061542;28;20505;-72
2021/10/22 08:03:15;;;;;;;5.22;1.30;;;22.00;93.70;;;;;;5061324;28;20039;-71
2021/10/22 08:05:42;;;;;;;4.15;1.67;;;21.90;94.00;;;;;;5059064;28;20024;-66
2021/10/22 08:08:10;;;;;;;4.85;1.70;;;21.70;94.40;;;;;;5061150;28;20463;-69
2021/10/22 08:10:38;;;;;;;8.27;4.03;;;21.60;95.20;;;;;;5061056;28;20101;-67
2021/10/22 08:13:10;;;;;;;5.00;2.03;;;21.40;95.90;;;;;;5060349;28;21110;-68
2021/10/22 08:15:41;;;;;;;5.72;1.65;;;21.30;96.40;;;;;;5063787;28;20025;-68
2021/10/22 08:18:12;;;;;;;6.07;1.58;;;21.20;96.50;;;;;;5062723;28;20020;-69
2021/10/22 08:20:56;;;;;;;7.22;1.63;;;21.10;97.10;;;;;;5060821;28;20029;-69
2021/10/22 08:23:23;;;;;;;7.35;1.95;;;21.00;98.00;;;;;;5063191;28;20505;-66
2021/10/22 08:25:50;;;;;;;7.40;1.80;;;21.00;97.90;;;;;;5061759;28;20024;-71
2021/10/22 08:28:20;;;;;;;5.18;1.48;;;20.90;98.10;;;;;;5059095;28;20028;-66
2021/10/22 08:30:55;;;;;;;5.63;1.63;;;20.80;98.80;;;;;;5060486;28;20418;-65
2021/10/22 08:33:25;;;;;;;3.92;1.40;;;20.60;99.70;;;;;;5059785;28;20029;-71
2021/10/22 08:35:57;;;;;;;7.22;1.80;;;20.50;99.80;;;;;;5058691;28;20115;-66
2021/10/22 08:38:28;;;;;;;4.57;1.60;;;20.40;99.90;;;;;;5057816;28;20542;-70
2021/10/22 08:40:58;;;;;;;3.60;1.73;;;20.20;99.90;;;;;;5055070;28;20032;-68
2021/10/22 08:43:27;;;;;;;8.68;5.03;;;20.10;99.90;;;;;;5059824;28;20033;-69
2021/10/22 08:45:59;;;;;;;6.40;2.42;;;20.20;99.90;;;;;;5060222;28;20059;-70
2021/10/22 08:48:30;;;;;;;6.78;2.22;;;20.20;99.90;;;;;;5059017;28;20439;-71
2021/10/22 08:50:57;;;;;;;7.32;1.88;;;20.20;99.90;;;;;;5060159;28;20590;-71
2021/10/22 08:53:26;;;;;;;9.32;2.17;;;20.00;99.90;;;;;;5060433;28;20048;-71
2021/10/22 08:55:53;;;;;;;3.83;1.60;;;20.00;99.90;;;;;;5060461;28;20020;-70
2021/10/22 08:58:20;;;;;;;5.97;1.52;;;20.10;99.90;;;;;;5059380;28;20060;-70
2021/10/22 09:00:47;;;;;;;4.68;1.73;;;20.00;99.90;;;;;;5061003;28;20571;-71
2021/10/22 09:03:19;;;;;;;5.40;2.10;;;20.00;99.90;;;;;;5059722;28;20456;-70
2021/10/22 09:06:17;;;;;;;7.03;1.90;;;20.00;99.90;;;;;;5059397;28;20113;-71
2021/10/22 09:08:46;;;;;;;4.70;1.83;;;19.90;99.90;;;;;;5047989;28;20036;-71
2021/10/22 09:11:32;;;;;;;4.53;1.60;;;19.70;99.90;;;;;;5060423;28;20035;-67
2021/10/22 09:14:02;;;;;;;2.75;1.08;;;19.70;99.90;;;;;;5060789;28;20020;-70
2021/10/22 09:16:30;;;;;;;5.68;1.67;;;19.60;99.90;;;;;;5058687;28;20427;-71
2021/10/22 09:18:59;;;;;;;3.65;1.50;;;19.50;99.90;;;;;;5059869;28;20025;-70
2021/10/22 09:21:32;;;;;;;4.65;1.30;;;19.60;99.90;;;;;;5055830;28;20170;-69
2021/10/22 09:24:19;;;;;;;7.47;1.58;;;19.60;99.90;;;;;;5057850;28;20059;-73
2021/10/22 09:26:56;;;;;;;2.90;1.20;;;19.40;99.90;;;;;;5059308;28;20060;-69
2021/10/22 09:29:27;;;;;;;7.10;1.98;;;19.20;99.90;;;;;;5060450;28;20025;-67
2021/10/22 09:31:57;;;;;;;5.18;1.60;;;19.20;99.90;;;;;;5058375;28;20676;-70
2021/10/22 09:34:34;;;;;;;5.38;1.70;;;19.30;99.90;;;;;;5046639;28;20033;-71
2021/10/22 09:37:02;;;;;;;4.45;1.55;;;19.30;99.90;;;;;;5052521;28;20064;-72
2021/10/22 09:39:37;;;;;;;4.78;2.17;;;19.40;99.90;;;;;;5058927;28;20405;-71
2021/10/22 09:42:11;;;;;;;4.93;1.38;;;19.30;99.90;;;;;;5058971;28;20061;-72
2021/10/22 09:44:41;;;;;;;7.00;1.70;;;19.20;99.90;;;;;;5053812;28;20052;-71
2021/10/22 09:47:08;;;;;;;5.07;1.60;;;19.20;99.90;;;;;;5054048;28;20214;-73
2021/10/22 09:49:51;;;;;;;5.13;1.95;;;19.20;99.90;;;;;;5060060;28;20017;-71
2021/10/22 09:52:21;;;;;;;;;;;19.00;99.90;;;;;;5052499;28;20483;-72
2021/10/22 09:55:14;;;;;;;8.35;1.52;;;19.00;99.90;;;;;;5056044;28;19920;-72
2021/10/22 09:57:42;;;;;;;;;;;18.90;99.90;;;;;;5055943;28;20021;-69
2021/10/22 10:00:11;;;;;;;5.70;1.88;;;19.00;99.90;;;;;;5058568;28;19947;-72
2021/10/22 10:02:39;;;;;;;8.13;2.10;;;18.90;99.90;;;;;;5055683;28;20036;-68
2021/10/22 10:05:08;;;;;;;5.43;1.67;;;18.80;99.90;;;;;;5045509;28;20021;-69
2021/10/22 10:07:39;;;;;;;4.43;2.08;;;18.70;99.90;;;;;;5056019;28;20106;-71
2021/10/22 10:10:08;;;;;;;5.28;2.08;;;18.70;99.90;;;;;;5057690;28;20427;-71
2021/10/22 10:12:36;;;;;;;5.55;2.80;;;18.80;99.90;;;;;;5054833;28;20029;-69
2021/10/22 10:15:09;;;;;;;5.85;1.77;;;18.80;99.90;;;;;;5042986;28;20025;-71
2021/10/22 10:17:49;;;;;;;3.65;1.75;;;18.70;99.90;;;;;;5052151;28;20032;-71
2021/10/22 10:20:24;;;;;;;3.55;1.75;;;18.60;99.90;;;;;;5050496;28;20585;-70
2021/10/22 10:22:52;;;;;;;5.63;1.48;;;18.60;99.90;;;;;;5053461;28;20036;-72
2021/10/22 10:25:22;;;;;;;4.80;2.20;;;18.50;99.90;;;;;;5053180;28;20129;-70
2021/10/22 10:27:52;;;;;;;7.63;2.00;;;18.40;99.90;;;;;;5048176;28;20056;-69
2021/10/22 10:30:31;;;;;;;5.70;1.67;;;18.30;99.90;;;;;;5056300;28;20029;-66
2021/10/22 10:33:00;;;;;;;6.22;1.67;;;18.30;99.90;;;;;;5052220;28;20466;-68
2021/10/22 10:35:34;;;;;;;5.93;1.98;;;18.50;99.90;;;;;;5051230;28;20780;-69
2021/10/22 10:38:02;;;;;;;4.85;1.60;;;18.30;99.90;;;;;;5061421;28;20036;-71
2021/10/22 10:40:31;;;;;;;6.80;2.17;;;18.30;99.90;;;;;;5067631;28;20506;-69
2021/10/22 10:43:04;;;;;;;6.63;3.83;;;18.20;99.90;;;;;;5067422;28;20070;-77
2021/10/22 10:45:31;;;;;;;4.18;1.95;;;18.20;99.90;;;;;;5061349;28;20021;-74
2021/10/22 10:48:06;;;;;;;7.43;2.50;;;18.20;99.90;;;;;;5063785;28;20024;-72
2021/10/22 10:50:42;;;;;;;5.32;2.03;;;18.30;99.90;;;;;;5060713;28;20027;-72
2021/10/22 10:53:11;;;;;;;3.65;2.05;;;18.40;99.90;;;;;;5056266;28;20052;-73
2021/10/22 10:55:45;;;;;;;4.60;1.83;;;18.50;99.90;;;;;;5060888;28;20129;-65
2021/10/22 10:58:15;;;;;;;7.10;1.63;;;18.50;99.90;;;;;;5063022;28;20032;-72
2021/10/22 11:01:07;;;;;;;5.55;1.90;;;18.30;99.90;;;;;;5061854;28;20059;-64
2021/10/22 11:03:49;;;;;;;4.70;1.65;;;18.30;99.90;;;;;;5060535;28;20407;-67
2021/10/22 11:06:40;;;;;;;4.85;1.60;;;18.30;99.90;;;;;;5058885;28;20063;-72
2021/10/22 11:09:07;;;;;;;3.78;1.90;;;18.30;99.90;;;;;;5064787;28;20107;-72
2021/10/22 11:11:36;;;;;;;6.95;2.05;;;18.30;99.90;;;;;;5060948;28;20048;-69
2021/10/22 11:14:07;;;;;;;5.90;2.03;;;18.30;99.90;;;;;;5061623;28;20111;-69
2021/10/22 11:16:41;;;;;;;4.55;1.92;;;18.30;99.90;;;;;;5060104;28;20029;-71
2021/10/22 11:19:22;;;;;;;8.48;2.08;;;18.40;99.90;;;;;;5060683;28;20039;-68
2021/10/22 11:22:03;;;;;;;5.97;1.92;;;18.40;99.90;;;;;;5061968;28;20036;-70
2021/10/22 11:24:32;;;;;;;6.10;2.42;;;18.30;99.90;;;;;;5062544;28;20112;-67
2021/10/22 11:27:18;;;;;;;5.60;1.90;;;18.20;99.90;;;;;;5063105;28;20024;-72
2021/10/22 11:29:49;;;;;;;12.52;2.53;;;18.20;99.90;;;;;;5051401;28;20540;-68
2021/10/22 11:32:18;;;;;;;5.28;1.67;;;18.00;99.90;;;;;;5058266;28;20029;-68
2021/10/22 11:34:54;;;;;;;4.30;1.88;;;17.80;99.90;;;;;;5061371;28;20029;-69
2021/10/22 11:37:23;;;;;;;5.03;1.80;;;17.70;99.90;;;;;;5047959;28;20040;-68
2021/10/22 11:39:53;;;;;;;8.93;2.15;;;17.70;99.90;;;;;;5053506;28;20434;-72
2021/10/22 11:42:30;;;;;;;5.55;1.80;;;17.70;99.90;;;;;;5053707;28;20020;-69
2021/10/22 11:45:02;;;;;;;4.05;2.15;;;17.60;99.90;;;;;;5049810;28;20028;-69
2021/10/22 11:47:49;;;;;;;9.25;3.33;;;17.50;99.90;;;;;;5067898;28;20028;-68
2021/10/22 11:50:24;;;;;;;7.25;2.15;;;17.40;99.90;;;;;;5052036;28;20059;-71
2021/10/22 11:53:14;;;;;;;6.47;2.00;;;17.30;99.90;;;;;;5059881;28;20041;-71
2021/10/22 11:55:51;;;;;;;6.97;2.95;;;17.50;99.90;;;;;;5069209;28;20024;-72
2021/10/22 11:58:22;;;;;;;3.05;1.67;;;17.60;99.90;;;;;;5049014;28;20391;-69
2021/10/22 12:00:53;;;;;;;7.05;2.45;;;17.60;99.90;;;;;;5054606;28;20351;-72
2021/10/22 12:03:54;;;;;;;5.95;2.92;;;17.60;99.90;;;;;;5065777;28;20478;-69
2021/10/22 12:06:23;;;;;;;6.40;2.25;;;17.60;99.90;;;;;;5051786;28;20028;-71
2021/10/22 12:08:59;;;;;;;11.02;6.50;;;17.60;99.90;;;;;;5056695;28;20083;-67
2021/10/22 12:11:29;;;;;;;6.35;2.65;;;17.60;99.90;;;;;;5059881;28;20036;-70
2021/10/22 12:13:56;;;;;;;4.80;1.70;;;17.40;99.90;;;;;;5065995;28;20034;-73
2021/10/22 12:16:31;;;;;;;3.45;2.08;;;17.50;99.90;;;;;;5053976;28;20024;-69
2021/10/22 12:18:59;;;;;;;5.65;2.17;;;17.50;99.90;;;;;;5052119;28;20169;-70
2021/10/22 12:21:30;;;;;;;4.95;2.15;;;17.40;99.90;;;;;;5056664;28;20111;-67
2021/10/22 12:23:59;;;;;;;6.70;2.50;;;17.40;99.90;;;;;;5048083;28;20066;-69
2021/10/22 12:26:28;;;;;;;6.88;2.33;;;17.30;99.90;;;;;;5053186;28;20108;-70
2021/10/22 12:29:06;;;;;;;4.45;2.03;;;17.20;99.90;;;;;;5059604;28;20017;-69
2021/10/22 12:31:52;;;;;;;5.03;2.50;;;17.30;99.90;;;;;;5058772;28;20032;-74
2021/10/22 12:34:33;;;;;;;7.47;2.55;;;17.30;99.90;;;;;;5062481;28;20507;-70
2021/10/22 12:37:09;;;;;;;7.15;3.10;;;17.10;99.90;;;;;;5063281;28;20038;-66
2021/10/22 12:39:46;;;;;;;5.13;2.97;;;17.20;99.90;;;;;;5061505;28;20029;-64
2021/10/22 12:42:31;;;;;;;10.32;6.00;;;17.10;99.90;;;;;;5061455;28;20041;-68
2021/10/22 12:45:20;;;;;;;4.60;2.58;;;17.00;99.90;;;;;;5060880;28;20135;-67
2021/10/22 12:47:49;;;;;;;8.77;3.70;;;16.90;99.90;;;;;;5061288;28;20434;-65
2021/10/22 12:50:27;;;;;;;5.30;3.00;;;16.80;99.90;;;;;;5060322;28;20443;-71
2021/10/22 12:53:04;;;;;;;4.82;2.80;;;16.70;99.90;;;;;;5066208;22;20057;-66
2021/10/22 12:55:32;;;;;;;7.93;2.67;;;16.60;99.90;;;;;;5052026;28;20021;-68
2021/10/22 12:58:21;;;;;;;5.95;2.55;;;16.70;99.90;;;;;;5045567;28;20036;-65
2021/10/22 13:01:08;;;;;;;7.15;2.80;;;16.70;99.90;;;;;;5047212;28;20020;-72
2021/10/22 13:03:37;;;;;;;6.18;2.85;;;16.60;99.90;;;;;;5050008;28;20046;-67
2021/10/22 13:06:17;;;;;;;6.22;2.85;;;16.60;99.90;;;;;;5047384;28;20067;-68